sensor_id;sensor_type;location;lat;lon;timestamp;pressure;altitude;pressure_sealevel;temperature;humidity
76794;BME280;65745;50.278;18.192;2023-05-01T00:01:35;100253.73;;;4.81;63.60
76794;BME280;65745;50.278;18.192;2023-05-01T00:04:07;100251.94;;;4.75;63.41
76794;BME280;65745;50.278;18.192;2023-05-01T00:06:40;100252.66;;;4.69;63.71
76794;BME280;65745;50.278;18.192;2023-05-01T00:09:12;100250.19;;;4.60;64.07
76794;BME280;65745;50.278;18.192;2023-05-01T00:11:44;100246.13;;;4.51;63.93
76794;BME280;65745;50.278;18.192;2023-05-01T00:14:16;100245.34;;;4.42;64.22
76794;BME280;65745;50.278;18.192;2023-05-01T00:16:49;100242.08;;;4.34;65.20
76794;BME280;65745;50.278;18.192;2023-05-01T00:19:21;100241.42;;;4.25;64.83
76794;BME280;65745;50.278;18.192;2023-05-01T00:21:53;100239.40;;;4.18;65.15
76794;BME280;65745;50.278;18.192;2023-05-01T00:24:25;100241.70;;;4.10;64.78
76794;BME280;65745;50.278;18.192;2023-05-01T00:26:57;100243.64;;;4.05;64.99
76794;BME280;65745;50.278;18.192;2023-05-01T00:29:29;100239.23;;;4.05;64.81
76794;BME280;65745;50.278;18.192;2023-05-01T00:32:01;100235.36;;;3.93;69.06
76794;BME280;65745;50.278;18.192;2023-05-01T00:34:35;100238.98;;;3.81;66.49
76794;BME280;65745;50.278;18.192;2023-05-01T00:37:08;100230.86;;;3.81;65.87
76794;BME280;65745;50.278;18.192;2023-05-01T00:39:40;100233.04;;;3.78;70.81
76794;BME280;65745;50.278;18.192;2023-05-01T00:42:12;100234.34;;;3.67;70.24
76794;BME280;65745;50.278;18.192;2023-05-01T00:44:44;100230.56;;;3.79;67.24
76794;BME280;65745;50.278;18.192;2023-05-01T00:47:16;100228.39;;;3.83;66.64
76794;BME280;65745;50.278;18.192;2023-05-01T00:49:50;100225.70;;;3.91;66.17
76794;BME280;65745;50.278;18.192;2023-05-01T00:52:24;100227.93;;;4.01;66.23
76794;BME280;65745;50.278;18.192;2023-05-01T00:54:57;100226.56;;;4.04;66.20
76794;BME280;65745;50.278;18.192;2023-05-01T00:57:30;100227.29;;;3.99;65.77
76794;BME280;65745;50.278;18.192;2023-05-01T01:00:03;100228.18;;;3.93;65.98
76794;BME280;65745;50.278;18.192;2023-05-01T01:02:35;100227.80;;;3.85;66.27
76794;BME280;65745;50.278;18.192;2023-05-01T01:05:08;100230.61;;;3.80;66.73
76794;BME280;65745;50.278;18.192;2023-05-01T01:07:44;100228.77;;;3.71;66.47
76794;BME280;65745;50.278;18.192;2023-05-01T01:10:29;100227.08;;;3.65;66.50
76794;BME280;65745;50.278;18.192;2023-05-01T01:13:11;100228.92;;;3.61;66.31
76794;BME280;65745;50.278;18.192;2023-05-01T01:15:52;100225.52;;;3.48;66.69
76794;BME280;65745;50.278;18.192;2023-05-01T01:18:35;100224.38;;;3.40;67.21
76794;BME280;65745;50.278;18.192;2023-05-01T01:21:14;100220.02;;;3.38;67.18
76794;BME280;65745;50.278;18.192;2023-05-01T01:24:25;100221.41;;;3.35;66.83
76794;BME280;65745;50.278;18.192;2023-05-01T01:27:17;100226.23;;;3.33;67.49
76794;BME280;65745;50.278;18.192;2023-05-01T01:29:58;100222.45;;;3.35;66.95
76794;BME280;65745;50.278;18.192;2023-05-01T01:33:12;100219.33;;;3.37;66.67
76794;BME280;65745;50.278;18.192;2023-05-01T01:35:54;100217.23;;;3.36;67.36
76794;BME280;65745;50.278;18.192;2023-05-01T01:38:32;100220.40;;;3.48;66.82
76794;BME280;65745;50.278;18.192;2023-05-01T01:41:11;100217.42;;;3.53;66.87
76794;BME280;65745;50.278;18.192;2023-05-01T01:43:51;100217.39;;;3.49;66.96
76794;BME280;65745;50.278;18.192;2023-05-01T01:46:27;100214.88;;;3.46;67.11
76794;BME280;65745;50.278;18.192;2023-05-01T01:48:59;100211.84;;;3.51;67.37
76794;BME280;65745;50.278;18.192;2023-05-01T01:51:35;100211.61;;;3.50;67.91
76794;BME280;65745;50.278;18.192;2023-05-01T01:54:12;100203.96;;;3.46;68.23
76794;BME280;65745;50.278;18.192;2023-05-01T01:56:46;100206.14;;;3.42;68.04
76794;BME280;65745;50.278;18.192;2023-05-01T01:59:21;100209.45;;;3.47;67.37
76794;BME280;65745;50.278;18.192;2023-05-01T02:01:56;100204.15;;;3.47;67.03
76794;BME280;65745;50.278;18.192;2023-05-01T02:04:30;100206.25;;;3.41;67.58
76794;BME280;65745;50.278;18.192;2023-05-01T02:07:04;100205.84;;;3.37;67.07
76794;BME280;65745;50.278;18.192;2023-05-01T02:09:38;100205.48;;;3.34;67.25
76794;BME280;65745;50.278;18.192;2023-05-01T02:12:13;100202.24;;;3.27;67.32
76794;BME280;65745;50.278;18.192;2023-05-01T02:14:47;100200.16;;;3.26;67.08
76794;BME280;65745;50.278;18.192;2023-05-01T02:17:21;100197.61;;;3.20;66.65
76794;BME280;65745;50.278;18.192;2023-05-01T02:19:54;100195.04;;;3.01;67.40
76794;BME280;65745;50.278;18.192;2023-05-01T02:22:28;100194.36;;;2.91;67.82
76794;BME280;65745;50.278;18.192;2023-05-01T02:25:01;100186.98;;;2.78;67.55
76794;BME280;65745;50.278;18.192;2023-05-01T02:27:37;100181.60;;;2.70;68.76
76794;BME280;65745;50.278;18.192;2023-05-01T02:30:11;100182.69;;;2.62;68.06
76794;BME280;65745;50.278;18.192;2023-05-01T02:32:43;100180.48;;;2.62;67.62
76794;BME280;65745;50.278;18.192;2023-05-01T02:35:15;100176.16;;;2.67;67.51
76794;BME280;65745;50.278;18.192;2023-05-01T02:37:48;100176.36;;;2.71;67.96
76794;BME280;65745;50.278;18.192;2023-05-01T02:40:21;100179.89;;;2.70;68.04
76794;BME280;65745;50.278;18.192;2023-05-01T02:42:53;100183.45;;;2.67;68.13
76794;BME280;65745;50.278;18.192;2023-05-01T02:45:26;100189.84;;;2.56;69.40
76794;BME280;65745;50.278;18.192;2023-05-01T02:48:02;100187.65;;;2.57;68.58
76794;BME280;65745;50.278;18.192;2023-05-01T02:50:36;100185.23;;;2.49;68.52
76794;BME280;65745;50.278;18.192;2023-05-01T02:53:12;100181.69;;;2.44;68.49
76794;BME280;65745;50.278;18.192;2023-05-01T02:55:50;100178.79;;;2.44;68.60
76794;BME280;65745;50.278;18.192;2023-05-01T02:58:22;100176.66;;;2.28;70.99
76794;BME280;65745;50.278;18.192;2023-05-01T03:00:54;100172.85;;;2.18;70.16
76794;BME280;65745;50.278;18.192;2023-05-01T03:03:27;100171.36;;;2.18;69.52
76794;BME280;65745;50.278;18.192;2023-05-01T03:05:59;100170.80;;;2.20;68.70
76794;BME280;65745;50.278;18.192;2023-05-01T03:08:33;100166.70;;;2.23;68.44
76794;BME280;65745;50.278;18.192;2023-05-01T03:11:07;100170.23;;;2.25;68.70
76794;BME280;65745;50.278;18.192;2023-05-01T03:13:39;100168.80;;;2.27;68.33
76794;BME280;65745;50.278;18.192;2023-05-01T03:16:11;100170.31;;;2.29;68.69
76794;BME280;65745;50.278;18.192;2023-05-01T03:18:43;100170.79;;;2.32;68.60
76794;BME280;65745;50.278;18.192;2023-05-01T03:21:15;100168.05;;;2.41;69.05
76794;BME280;65745;50.278;18.192;2023-05-01T03:23:47;100165.00;;;2.44;68.54
76794;BME280;65745;50.278;18.192;2023-05-01T03:26:19;100163.05;;;2.48;68.54
76794;BME280;65745;50.278;18.192;2023-05-01T03:28:53;100161.48;;;2.54;68.44
76794;BME280;65745;50.278;18.192;2023-05-01T03:31:25;100160.77;;;2.53;68.92
76794;BME280;65745;50.278;18.192;2023-05-01T03:33:58;100161.91;;;2.58;68.79
76794;BME280;65745;50.278;18.192;2023-05-01T03:36:30;100159.32;;;2.55;69.15
76794;BME280;65745;50.278;18.192;2023-05-01T03:39:03;100156.09;;;2.45;70.55
76794;BME280;65745;50.278;18.192;2023-05-01T03:42:08;100153.37;;;2.36;71.00
76794;BME280;65745;50.278;18.192;2023-05-01T03:44:44;100155.52;;;2.36;69.99
76794;BME280;65745;50.278;18.192;2023-05-01T03:47:16;100153.10;;;2.38;69.37
76794;BME280;65745;50.278;18.192;2023-05-01T03:49:48;100149.59;;;2.42;69.38
76794;BME280;65745;50.278;18.192;2023-05-01T03:52:20;100151.01;;;2.46;69.66
76794;BME280;65745;50.278;18.192;2023-05-01T03:54:53;100154.61;;;2.29;71.24
76794;BME280;65745;50.278;18.192;2023-05-01T03:57:43;100155.55;;;2.27;70.69
76794;BME280;65745;50.278;18.192;2023-05-01T04:00:17;100155.50;;;2.32;69.62
76794;BME280;65745;50.278;18.192;2023-05-01T04:02:49;100159.23;;;2.35;70.31
76794;BME280;65745;50.278;18.192;2023-05-01T04:05:25;100160.21;;;2.31;70.07
76794;BME280;65745;50.278;18.192;2023-05-01T04:08:00;100159.49;;;2.28;71.29
76794;BME280;65745;50.278;18.192;2023-05-01T04:10:32;100160.92;;;2.26;70.95
76794;BME280;65745;50.278;18.192;2023-05-01T04:13:07;100159.01;;;2.31;71.00
76794;BME280;65745;50.278;18.192;2023-05-01T04:15:42;100158.55;;;2.44;71.34
76794;BME280;65745;50.278;18.192;2023-05-01T04:18:15;100156.84;;;2.62;70.80
76794;BME280;65745;50.278;18.192;2023-05-01T04:20:47;100153.59;;;2.83;70.29
76794;BME280;65745;50.278;18.192;2023-05-01T04:23:19;100153.60;;;2.96;70.39
76794;BME280;65745;50.278;18.192;2023-05-01T04:25:53;100155.86;;;3.13;70.39
76794;BME280;65745;50.278;18.192;2023-05-01T04:28:25;100158.56;;;3.22;69.33
76794;BME280;65745;50.278;18.192;2023-05-01T04:31:00;100160.67;;;3.33;69.26
76794;BME280;65745;50.278;18.192;2023-05-01T04:33:33;100158.63;;;3.36;71.05
76794;BME280;65745;50.278;18.192;2023-05-01T04:36:05;100160.39;;;3.27;72.35
76794;BME280;65745;50.278;18.192;2023-05-01T04:38:37;100160.23;;;3.37;70.40
76794;BME280;65745;50.278;18.192;2023-05-01T04:41:10;100160.16;;;3.52;69.77
76794;BME280;65745;50.278;18.192;2023-05-01T04:43:42;100159.77;;;3.61;70.27
76794;BME280;65745;50.278;18.192;2023-05-01T04:46:15;100162.84;;;3.68;70.93
76794;BME280;65745;50.278;18.192;2023-05-01T04:48:47;100162.02;;;3.78;70.26
76794;BME280;65745;50.278;18.192;2023-05-01T04:51:19;100168.16;;;3.89;70.50
76794;BME280;65745;50.278;18.192;2023-05-01T04:53:52;100166.77;;;3.88;71.72
76794;BME280;65745;50.278;18.192;2023-05-01T04:56:28;100162.66;;;3.91;72.46
76794;BME280;65745;50.278;18.192;2023-05-01T04:59:02;100164.45;;;4.03;71.16
76794;BME280;65745;50.278;18.192;2023-05-01T05:01:35;100165.46;;;4.06;72.71
76794;BME280;65745;50.278;18.192;2023-05-01T05:04:07;100161.59;;;4.07;74.48
76794;BME280;65745;50.278;18.192;2023-05-01T05:06:39;100161.85;;;4.26;72.82
76794;BME280;65745;50.278;18.192;2023-05-01T05:09:16;100155.80;;;4.48;72.27
76794;BME280;65745;50.278;18.192;2023-05-01T05:11:50;100156.11;;;4.70;70.79
76794;BME280;65745;50.278;18.192;2023-05-01T05:14:26;100152.65;;;4.90;70.12
76794;BME280;65745;50.278;18.192;2023-05-01T05:16:58;100155.52;;;5.08;69.51
76794;BME280;65745;50.278;18.192;2023-05-01T05:19:30;100150.05;;;5.23;69.45
76794;BME280;65745;50.278;18.192;2023-05-01T05:22:03;100147.56;;;5.36;69.05
76794;BME280;65745;50.278;18.192;2023-05-01T05:24:38;100146.44;;;5.53;68.66
76794;BME280;65745;50.278;18.192;2023-05-01T05:27:10;100150.59;;;5.62;68.41
76794;BME280;65745;50.278;18.192;2023-05-01T05:29:42;100146.39;;;5.75;68.76
76794;BME280;65745;50.278;18.192;2023-05-01T05:32:14;100147.54;;;5.97;68.66
76794;BME280;65745;50.278;18.192;2023-05-01T05:34:47;100143.73;;;6.21;68.89
76794;BME280;65745;50.278;18.192;2023-05-01T05:37:19;100144.59;;;6.42;68.39
76794;BME280;65745;50.278;18.192;2023-05-01T05:39:54;100142.45;;;6.65;68.15
76794;BME280;65745;50.278;18.192;2023-05-01T05:42:27;100140.14;;;6.85;67.73
76794;BME280;65745;50.278;18.192;2023-05-01T05:45:03;100142.09;;;6.96;67.27
76794;BME280;65745;50.278;18.192;2023-05-01T05:47:35;100142.04;;;6.99;66.80
76794;BME280;65745;50.278;18.192;2023-05-01T05:50:09;100141.21;;;7.18;67.24
76794;BME280;65745;50.278;18.192;2023-05-01T05:52:42;100139.74;;;7.38;66.57
76794;BME280;65745;50.278;18.192;2023-05-01T05:55:14;100139.17;;;7.56;66.35
76794;BME280;65745;50.278;18.192;2023-05-01T05:57:55;100140.99;;;7.74;65.33
76794;BME280;65745;50.278;18.192;2023-05-01T06:00:27;100139.98;;;7.89;65.93
76794;BME280;65745;50.278;18.192;2023-05-01T06:03:02;100140.12;;;8.08;65.46
76794;BME280;65745;50.278;18.192;2023-05-01T06:05:35;100140.07;;;8.22;64.87
76794;BME280;65745;50.278;18.192;2023-05-01T06:08:07;100139.11;;;8.33;64.40
76794;BME280;65745;50.278;18.192;2023-05-01T06:10:42;100133.80;;;8.44;64.18
76794;BME280;65745;50.278;18.192;2023-05-01T06:13:15;100137.91;;;8.65;63.62
76794;BME280;65745;50.278;18.192;2023-05-01T06:15:50;100133.89;;;8.74;62.46
76794;BME280;65745;50.278;18.192;2023-05-01T06:18:23;100134.74;;;8.79;61.98
76794;BME280;65745;50.278;18.192;2023-05-01T06:20:55;100134.70;;;8.89;62.75
76794;BME280;65745;50.278;18.192;2023-05-01T06:23:28;100136.09;;;9.07;62.31
76794;BME280;65745;50.278;18.192;2023-05-01T06:26:21;100138.17;;;9.20;61.68
76794;BME280;65745;50.278;18.192;2023-05-01T06:28:53;100134.88;;;9.30;61.28
76794;BME280;65745;50.278;18.192;2023-05-01T06:31:26;100136.70;;;9.46;61.76
76794;BME280;65745;50.278;18.192;2023-05-01T06:33:58;100135.26;;;9.68;61.06
76794;BME280;65745;50.278;18.192;2023-05-01T06:36:48;100131.32;;;9.88;60.63
76794;BME280;65745;50.278;18.192;2023-05-01T06:39:21;100129.68;;;10.05;60.40
76794;BME280;65745;50.278;18.192;2023-05-01T06:41:53;100127.96;;;10.24;60.00
76794;BME280;65745;50.278;18.192;2023-05-01T06:44:33;100123.20;;;10.40;59.18
76794;BME280;65745;50.278;18.192;2023-05-01T06:47:05;100122.95;;;10.52;58.75
76794;BME280;65745;50.278;18.192;2023-05-01T06:49:37;100123.32;;;10.60;57.97
76794;BME280;65745;50.278;18.192;2023-05-01T06:52:10;100119.36;;;10.68;57.17
76794;BME280;65745;50.278;18.192;2023-05-01T06:54:42;100116.62;;;10.83;57.09
76794;BME280;65745;50.278;18.192;2023-05-01T06:57:14;100115.11;;;11.00;57.09
76794;BME280;65745;50.278;18.192;2023-05-01T06:59:46;100109.86;;;11.21;56.93
76794;BME280;65745;50.278;18.192;2023-05-01T07:02:18;100107.76;;;11.46;55.80
76794;BME280;65745;50.278;18.192;2023-05-01T07:04:51;100108.33;;;11.66;55.10
76794;BME280;65745;50.278;18.192;2023-05-01T07:07:23;100104.29;;;11.89;55.80
76794;BME280;65745;50.278;18.192;2023-05-01T07:09:56;100094.08;;;12.17;54.70
76794;BME280;65745;50.278;18.192;2023-05-01T07:12:29;100094.27;;;12.40;54.27
76794;BME280;65745;50.278;18.192;2023-05-01T07:15:01;100093.58;;;12.63;54.38
76794;BME280;65745;50.278;18.192;2023-05-01T07:17:33;100092.88;;;12.86;53.74
76794;BME280;65745;50.278;18.192;2023-05-01T07:20:07;100087.79;;;13.06;53.34
76794;BME280;65745;50.278;18.192;2023-05-01T07:22:40;100087.42;;;13.30;51.45
76794;BME280;65745;50.278;18.192;2023-05-01T07:25:12;100083.73;;;13.41;49.38
76794;BME280;65745;50.278;18.192;2023-05-01T07:27:45;100080.52;;;13.64;48.56
76794;BME280;65745;50.278;18.192;2023-05-01T07:30:17;100076.93;;;13.84;46.67
76794;BME280;65745;50.278;18.192;2023-05-01T07:32:50;100074.96;;;13.95;46.29
76794;BME280;65745;50.278;18.192;2023-05-01T07:35:22;100074.32;;;14.01;45.26
76794;BME280;65745;50.278;18.192;2023-05-01T07:37:54;100074.54;;;14.07;47.36
76794;BME280;65745;50.278;18.192;2023-05-01T07:40:26;100072.61;;;14.06;46.83
76794;BME280;65745;50.278;18.192;2023-05-01T07:42:59;100077.11;;;14.24;46.81
76794;BME280;65745;50.278;18.192;2023-05-01T07:45:31;100075.75;;;14.48;46.27
76794;BME280;65745;50.278;18.192;2023-05-01T07:48:05;100072.92;;;14.67;45.42
76794;BME280;65745;50.278;18.192;2023-05-01T07:50:39;100064.99;;;14.73;44.14
76794;BME280;65745;50.278;18.192;2023-05-01T07:53:11;100061.13;;;14.66;42.29
76794;BME280;65745;50.278;18.192;2023-05-01T07:55:43;100056.33;;;14.73;41.68
76794;BME280;65745;50.278;18.192;2023-05-01T07:58:15;100056.59;;;14.90;42.80
76794;BME280;65745;50.278;18.192;2023-05-01T08:00:48;100048.55;;;15.19;42.90
76794;BME280;65745;50.278;18.192;2023-05-01T08:03:21;100047.47;;;15.57;42.85
76794;BME280;65745;50.278;18.192;2023-05-01T08:05:53;100047.88;;;15.94;43.30
76794;BME280;65745;50.278;18.192;2023-05-01T08:08:26;100051.70;;;16.15;40.63
76794;BME280;65745;50.278;18.192;2023-05-01T08:10:58;100048.05;;;16.25;39.30
76794;BME280;65745;50.278;18.192;2023-05-01T08:13:30;100043.32;;;16.45;41.50
76794;BME280;65745;50.278;18.192;2023-05-01T08:16:04;100050.08;;;16.74;40.41
76794;BME280;65745;50.278;18.192;2023-05-01T08:18:36;100047.08;;;16.91;38.54
76794;BME280;65745;50.278;18.192;2023-05-01T08:21:09;100040.80;;;16.91;37.05
76794;BME280;65745;50.278;18.192;2023-05-01T08:23:41;100044.44;;;16.96;37.53
76794;BME280;65745;50.278;18.192;2023-05-01T08:26:13;100043.05;;;16.94;37.71
76794;BME280;65745;50.278;18.192;2023-05-01T08:28:46;100042.83;;;17.08;38.14
76794;BME280;65745;50.278;18.192;2023-05-01T08:31:18;100038.72;;;17.29;37.72
76794;BME280;65745;50.278;18.192;2023-05-01T08:33:51;100033.05;;;17.45;36.08
76794;BME280;65745;50.278;18.192;2023-05-01T08:36:23;100027.06;;;17.58;36.25
76794;BME280;65745;50.278;18.192;2023-05-01T08:38:55;100023.42;;;17.84;37.54
76794;BME280;65745;50.278;18.192;2023-05-01T08:41:28;100022.02;;;18.08;36.99
76794;BME280;65745;50.278;18.192;2023-05-01T08:44:01;100017.80;;;18.28;36.66
76794;BME280;65745;50.278;18.192;2023-05-01T08:46:42;100018.48;;;18.48;36.60
76794;BME280;65745;50.278;18.192;2023-05-01T08:49:17;100023.90;;;18.67;36.89
76794;BME280;65745;50.278;18.192;2023-05-01T08:51:51;100019.23;;;18.79;35.80
76794;BME280;65745;50.278;18.192;2023-05-01T08:54:28;100020.45;;;18.93;35.78
76794;BME280;65745;50.278;18.192;2023-05-01T08:57:03;100017.99;;;18.95;33.20
76794;BME280;65745;50.278;18.192;2023-05-01T08:59:41;100014.98;;;18.85;34.37
76794;BME280;65745;50.278;18.192;2023-05-01T09:02:15;100012.08;;;18.94;34.17
76794;BME280;65745;50.278;18.192;2023-05-01T09:04:48;100003.92;;;19.03;33.43
76794;BME280;65745;50.278;18.192;2023-05-01T09:07:21;100003.89;;;19.19;34.05
76794;BME280;65745;50.278;18.192;2023-05-01T09:09:54;100001.75;;;19.34;33.65
76794;BME280;65745;50.278;18.192;2023-05-01T09:12:27;100000.61;;;19.41;33.48
76794;BME280;65745;50.278;18.192;2023-05-01T09:15:01;99993.70;;;19.35;32.62
76794;BME280;65745;50.278;18.192;2023-05-01T09:17:34;99994.03;;;19.51;33.54
76794;BME280;65745;50.278;18.192;2023-05-01T09:20:09;99992.98;;;19.73;33.65
76794;BME280;65745;50.278;18.192;2023-05-01T09:22:41;99995.85;;;19.90;32.79
76794;BME280;65745;50.278;18.192;2023-05-01T09:25:13;99993.16;;;19.84;32.25
76794;BME280;65745;50.278;18.192;2023-05-01T09:27:46;99994.52;;;19.75;31.54
76794;BME280;65745;50.278;18.192;2023-05-01T09:30:33;99991.71;;;19.76;31.76
76794;BME280;65745;50.278;18.192;2023-05-01T09:33:10;99981.58;;;19.87;31.44
76794;BME280;65745;50.278;18.192;2023-05-01T09:35:54;99984.07;;;19.73;30.72
76794;BME280;65745;50.278;18.192;2023-05-01T09:38:28;99983.54;;;19.84;31.78
76794;BME280;65745;50.278;18.192;2023-05-01T09:41:05;99983.75;;;20.04;31.80
76794;BME280;65745;50.278;18.192;2023-05-01T09:43:38;99977.40;;;19.96;31.01
76794;BME280;65745;50.278;18.192;2023-05-01T09:46:11;99972.90;;;20.04;30.96
76794;BME280;65745;50.278;18.192;2023-05-01T09:48:52;99973.96;;;20.13;31.48
76794;BME280;65745;50.278;18.192;2023-05-01T09:51:27;99971.52;;;20.13;30.76
76794;BME280;65745;50.278;18.192;2023-05-01T09:54:01;99974.31;;;20.33;30.47
76794;BME280;65745;50.278;18.192;2023-05-01T09:56:46;99967.85;;;20.33;29.93
76794;BME280;65745;50.278;18.192;2023-05-01T09:59:20;99966.77;;;20.52;30.85
76794;BME280;65745;50.278;18.192;2023-05-01T10:01:52;99964.71;;;20.68;30.34
76794;BME280;65745;50.278;18.192;2023-05-01T10:04:31;99962.68;;;20.65;29.77
76794;BME280;65745;50.278;18.192;2023-05-01T10:07:13;99961.73;;;20.76;30.51
76794;BME280;65745;50.278;18.192;2023-05-01T10:09:45;99963.46;;;21.02;31.12
76794;BME280;65745;50.278;18.192;2023-05-01T10:12:25;99966.20;;;21.22;30.85
76794;BME280;65745;50.278;18.192;2023-05-01T10:14:58;99957.89;;;21.34;29.75
76794;BME280;65745;50.278;18.192;2023-05-01T10:17:38;99952.73;;;21.52;28.61
76794;BME280;65745;50.278;18.192;2023-05-01T10:20:13;99951.27;;;21.62;29.81
76794;BME280;65745;50.278;18.192;2023-05-01T10:22:45;99947.48;;;21.66;30.06
76794;BME280;65745;50.278;18.192;2023-05-01T10:25:22;99942.59;;;21.65;30.09
76794;BME280;65745;50.278;18.192;2023-05-01T10:27:57;99938.00;;;21.80;30.28
76794;BME280;65745;50.278;18.192;2023-05-01T10:30:29;99942.52;;;22.10;29.53
76794;BME280;65745;50.278;18.192;2023-05-01T10:33:02;99939.16;;;22.49;30.39
76794;BME280;65745;50.278;18.192;2023-05-01T10:35:37;99937.44;;;22.55;29.56
76794;BME280;65745;50.278;18.192;2023-05-01T10:38:12;99941.21;;;22.45;28.65
76794;BME280;65745;50.278;18.192;2023-05-01T10:40:50;99929.23;;;22.34;27.91
76794;BME280;65745;50.278;18.192;2023-05-01T10:43:24;99924.65;;;22.72;29.25
76794;BME280;65745;50.278;18.192;2023-05-01T10:46:27;99923.42;;;23.07;29.46
76794;BME280;65745;50.278;18.192;2023-05-01T10:49:00;99922.62;;;22.94;29.22
76794;BME280;65745;50.278;18.192;2023-05-01T10:51:33;99916.86;;;22.98;28.95
76794;BME280;65745;50.278;18.192;2023-05-01T10:54:25;99910.50;;;23.10;29.15
76794;BME280;65745;50.278;18.192;2023-05-01T10:56:59;99910.26;;;23.35;28.79
76794;BME280;65745;50.278;18.192;2023-05-01T11:02:35;99910.11;;;23.56;28.99
76794;BME280;65745;50.278;18.192;2023-05-01T11:05:07;99904.44;;;23.47;29.71
76794;BME280;65745;50.278;18.192;2023-05-01T11:07:40;99899.06;;;23.66;29.24
76794;BME280;65745;50.278;18.192;2023-05-01T11:10:26;99892.11;;;23.74;29.55
76794;BME280;65745;50.278;18.192;2023-05-01T11:12:58;99883.21;;;23.92;29.07
76794;BME280;65745;50.278;18.192;2023-05-01T11:15:31;99872.40;;;24.19;28.74
76794;BME280;65745;50.278;18.192;2023-05-01T11:18:04;99870.95;;;24.54;29.42
76794;BME280;65745;50.278;18.192;2023-05-01T11:20:50;99866.27;;;24.70;28.85
76794;BME280;65745;50.278;18.192;2023-05-01T11:23:23;99866.84;;;24.60;29.02
76794;BME280;65745;50.278;18.192;2023-05-01T11:26:04;99859.96;;;24.56;28.79
76794;BME280;65745;50.278;18.192;2023-05-01T11:28:38;99858.95;;;24.86;29.10
76794;BME280;65745;50.278;18.192;2023-05-01T11:31:17;99848.73;;;25.05;29.17
76794;BME280;65745;50.278;18.192;2023-05-01T11:33:49;99850.84;;;25.05;28.80
76794;BME280;65745;50.278;18.192;2023-05-01T11:36:22;99845.75;;;25.17;28.71
76794;BME280;65745;50.278;18.192;2023-05-01T11:38:55;99844.02;;;25.33;28.77
76794;BME280;65745;50.278;18.192;2023-05-01T11:41:28;99841.83;;;25.39;28.54
76794;BME280;65745;50.278;18.192;2023-05-01T11:44:01;99842.85;;;25.62;28.40
76794;BME280;65745;50.278;18.192;2023-05-01T11:46:33;99840.05;;;25.65;27.50
76794;BME280;65745;50.278;18.192;2023-05-01T11:49:06;99835.45;;;25.44;27.44
76794;BME280;65745;50.278;18.192;2023-05-01T11:51:38;99832.55;;;25.67;27.11
76794;BME280;65745;50.278;18.192;2023-05-01T11:54:11;99834.13;;;25.38;27.29
76794;BME280;65745;50.278;18.192;2023-05-01T11:56:45;99829.51;;;25.72;27.22
76794;BME280;65745;50.278;18.192;2023-05-01T11:59:18;99828.38;;;25.94;27.52
76794;BME280;65745;50.278;18.192;2023-05-01T12:01:50;99821.27;;;26.03;27.51
76794;BME280;65745;50.278;18.192;2023-05-01T12:04:27;99819.54;;;26.53;27.63
76794;BME280;65745;50.278;18.192;2023-05-01T12:07:02;99818.81;;;27.02;26.23
76794;BME280;65745;50.278;18.192;2023-05-01T12:09:34;99818.95;;;27.28;26.23
76794;BME280;65745;50.278;18.192;2023-05-01T12:12:07;99818.65;;;27.37;26.37
76794;BME280;65745;50.278;18.192;2023-05-01T12:14:39;99817.20;;;27.48;25.67
76794;BME280;65745;50.278;18.192;2023-05-01T12:17:16;99814.69;;;27.31;25.31
76794;BME280;65745;50.278;18.192;2023-05-01T12:19:49;99811.71;;;27.20;24.68
76794;BME280;65745;50.278;18.192;2023-05-01T12:22:22;99807.27;;;27.38;24.64
76794;BME280;65745;50.278;18.192;2023-05-01T12:24:54;99801.13;;;27.59;25.43
76794;BME280;65745;50.278;18.192;2023-05-01T12:27:27;99798.81;;;27.48;25.09
76794;BME280;65745;50.278;18.192;2023-05-01T12:29:59;99786.54;;;27.56;25.75
76794;BME280;65745;50.278;18.192;2023-05-01T12:32:34;99782.85;;;27.63;25.54
76794;BME280;65745;50.278;18.192;2023-05-01T12:35:15;99778.80;;;27.52;25.15
76794;BME280;65745;50.278;18.192;2023-05-01T12:37:47;99776.66;;;27.46;26.15
76794;BME280;65745;50.278;18.192;2023-05-01T12:40:19;99775.02;;;27.35;25.90
76794;BME280;65745;50.278;18.192;2023-05-01T12:42:56;99766.35;;;27.49;26.14
76794;BME280;65745;50.278;18.192;2023-05-01T12:45:29;99765.19;;;27.62;26.46
76794;BME280;65745;50.278;18.192;2023-05-01T12:48:01;99757.16;;;27.63;25.87
76794;BME280;65745;50.278;18.192;2023-05-01T12:50:38;99755.90;;;27.43;25.92
76794;BME280;65745;50.278;18.192;2023-05-01T12:53:10;99753.27;;;27.50;26.27
76794;BME280;65745;50.278;18.192;2023-05-01T12:55:48;99747.18;;;27.37;26.66
76794;BME280;65745;50.278;18.192;2023-05-01T12:58:22;99747.91;;;27.33;26.68
76794;BME280;65745;50.278;18.192;2023-05-01T13:00:56;99748.02;;;27.27;26.29
76794;BME280;65745;50.278;18.192;2023-05-01T13:03:30;99751.77;;;26.99;26.14
76794;BME280;65745;50.278;18.192;2023-05-01T13:06:04;99739.64;;;27.36;26.43
76794;BME280;65745;50.278;18.192;2023-05-01T13:08:38;99736.01;;;27.68;26.05
76794;BME280;65745;50.278;18.192;2023-05-01T13:11:15;99727.56;;;27.84;26.12
76794;BME280;65745;50.278;18.192;2023-05-01T13:13:48;99725.99;;;27.93;25.74
76794;BME280;65745;50.278;18.192;2023-05-01T13:16:20;99723.39;;;27.95;25.88
76794;BME280;65745;50.278;18.192;2023-05-01T13:18:54;99720.09;;;28.20;26.12
76794;BME280;65745;50.278;18.192;2023-05-01T13:21:27;99714.34;;;28.72;25.66
76794;BME280;65745;50.278;18.192;2023-05-01T13:24:00;99709.27;;;29.22;25.73
76794;BME280;65745;50.278;18.192;2023-05-01T13:26:32;99703.84;;;29.73;25.03
76794;BME280;65745;50.278;18.192;2023-05-01T13:29:06;99703.19;;;30.01;24.25